Time;durP1;ratioP1;P1;durP2;ratioP2;P2;SDS_P1;SDS_P2;PMS_P1;PMS_P2;Temp;Humidity;BMP_temperature;BMP_pressure;BME280_temperature;BME280_humidity;BME280_pressure;Samples;Min_cycle;Max_cycle;Signal;HPM_P1;HPM_P2
2022/04/14 00:00:01;;;;;;;2.45;1.05;;;;;;;3.21;67.09;99696.72;6215513;23;20107;-64
2022/04/14 00:02:28;;;;;;;2.63;1.20;;;;;;;3.22;66.91;99701.09;6216025;23;20330;-64
2022/04/14 00:04:55;;;;;;;2.25;1.35;;;;;;;3.17;67.18;99707.44;6215282;23;20444;-63
2022/04/14 00:07:22;;;;;;;3.83;1.50;;;;;;;3.15;67.25;99697.84;6215352;23;20033;-64
2022/04/14 00:09:49;;;;;;;1.95;1.10;;;;;;;3.13;67.26;99700.84;6215248;23;20356;-63
2022/04/14 00:12:17;;;;;;;2.45;1.35;;;;;;;3.15;67.31;99703.31;6213769;23;20028;-64
2022/04/14 00:14:44;;;;;;;2.53;1.05;;;;;;;3.15;67.21;99692.34;6215031;23;20108;-64
2022/04/14 00:17:12;;;;;;;4.22;1.30;;;;;;;3.13;67.36;99691.78;6214913;23;20059;-65
2022/04/14 00:19:40;;;;;;;1.50;0.95;;;;;;;3.13;67.16;99684.38;6215276;23;20028;-63
2022/04/14 00:22:08;;;;;;;2.13;1.15;;;;;;;3.11;67.47;99691.25;6215176;23;20046;-64
2022/04/14 00:24:35;;;;;;;2.53;1.00;;;;;;;3.10;67.39;99689.59;6215470;23;20048;-63
2022/04/14 00:27:02;;;;;;;3.22;1.27;;;;;;;3.07;67.51;99687.41;6215200;23;20123;-63
2022/04/14 00:29:29;;;;;;;2.15;1.00;;;;;;;3.05;67.29;99697.88;6214912;23;20071;-64
2022/04/14 00:31:56;;;;;;;1.73;1.02;;;;;;;3.03;67.76;99689.06;6215450;23;20031;-64
2022/04/14 00:34:23;;;;;;;1.75;1.10;;;;;;;3.02;67.74;99688.25;6215226;23;20470;-69
2022/04/14 00:36:50;;;;;;;2.40;1.13;;;;;;;2.98;67.33;99686.34;6215308;23;20121;-63
2022/04/14 00:39:17;;;;;;;2.28;1.10;;;;;;;2.97;67.56;99684.69;6215164;23;20059;-64
2022/04/14 00:41:44;;;;;;;2.63;1.25;;;;;;;2.95;67.53;99681.41;6213907;23;20385;-63
2022/04/14 00:44:11;;;;;;;2.05;1.13;;;;;;;2.89;67.67;99675.13;6213276;23;20028;-65
2022/04/14 00:46:38;;;;;;;1.75;0.95;;;;;;;2.92;67.74;99670.97;6215491;23;20024;-64
2022/04/14 00:49:05;;;;;;;1.58;1.00;;;;;;;2.84;67.76;99674.31;6215322;23;20020;-72
2022/04/14 00:51:32;;;;;;;4.05;1.30;;;;;;;2.84;67.94;99674.31;6214982;23;20111;-73
2022/04/14 00:53:59;;;;;;;3.33;1.40;;;;;;;2.83;67.79;99683.63;6213761;23;20103;-73
2022/04/14 00:56:26;;;;;;;3.80;1.35;;;;;;;2.82;68.06;99682.84;6215814;23;20082;-72
2022/04/14 00:58:54;;;;;;;4.13;1.60;;;;;;;2.79;68.20;99683.41;6215476;23;20044;-72
2022/04/14 01:01:21;;;;;;;2.20;1.10;;;;;;;2.79;68.22;99677.06;6215474;23;20415;-72
2022/04/14 01:03:49;;;;;;;3.15;1.30;;;;;;;2.75;68.13;99681.47;6215506;23;20473;-71
2022/04/14 01:06:19;;;;;;;3.10;1.60;;;;;;;2.74;67.96;99677.06;6215279;23;20040;-73
2022/04/14 01:11:35;;;;;;;1.40;0.93;;;;;;;2.71;68.21;99678.47;6213706;23;20059;-72
2022/04/14 01:14:03;;;;;;;3.10;1.05;;;;;;;2.70;68.08;99684.22;6215476;23;20119;-72
2022/04/14 01:16:30;;;;;;;2.50;1.13;;;;;;;2.68;68.30;99686.41;6214372;23;20020;-72
2022/04/14 01:18:57;;;;;;;2.38;1.23;;;;;;;2.68;68.43;99686.41;6215190;23;20079;-72
2022/04/14 01:21:30;;;;;;;2.35;1.30;;;;;;;2.65;68.34;99690.56;6216775;23;20116;-73
2022/04/14 01:23:57;;;;;;;1.65;0.88;;;;;;;2.63;68.53;99701.00;6217272;23;20425;-71
2022/04/14 01:26:24;;;;;;;1.58;0.90;;;;;;;2.61;68.57;99685.91;6216789;23;20048;-73
2022/04/14 01:28:51;;;;;;;2.13;1.05;;;;;;;2.59;68.44;99694.41;6216697;23;20103;-71
2022/04/14 01:31:18;;;;;;;2.33;1.20;;;;;;;2.54;68.56;99699.06;6217047;23;20111;-72
2022/04/14 01:33:45;;;;;;;2.85;1.35;;;;;;;2.52;68.81;99695.78;6217042;23;20028;-72
2022/04/14 01:36:11;;;;;;;1.98;1.10;;;;;;;2.51;68.53;99694.97;6217053;23;20048;-72
2022/04/14 01:38:38;;;;;;;4.25;1.10;;;;;;;2.49;68.58;99685.38;6216730;23;20024;-72
2022/04/14 01:41:05;;;;;;;2.17;1.10;;;;;;;2.44;68.91;99696.34;6217169;23;20052;-72
2022/04/14 01:43:32;;;;;;;2.33;1.30;;;;;;;2.40;68.88;99689.78;6217239;23;20487;-77
2022/04/14 01:46:00;;;;;;;2.88;1.25;;;;;;;2.41;69.08;99703.22;6217602;23;20043;-72
2022/04/14 01:48:27;;;;;;;2.42;1.17;;;;;;;2.37;69.18;99696.63;6215253;23;20111;-72
2022/04/14 01:50:54;;;;;;;2.45;1.35;;;;;;;2.35;69.27;99706.22;6216416;23;20029;-73
2022/04/14 01:53:21;;;;;;;2.60;1.30;;;;;;;2.33;69.10;99698.28;6216540;23;20031;-72
2022/04/14 01:55:48;;;;;;;2.03;1.05;;;;;;;2.30;69.01;99700.75;6216837;23;20529;-72
2022/04/14 01:58:15;;;;;;;1.90;1.23;;;;;;;2.31;68.85;99696.91;6215202;23;20052;-72
2022/04/14 02:00:42;;;;;;;2.22;1.17;;;;;;;2.30;69.17;99701.56;6216814;23;20458;-72
2022/04/14 02:03:09;;;;;;;2.65;1.25;;;;;;;2.28;69.27;99697.47;6216206;23;20032;-63
2022/04/14 02:05:36;;;;;;;1.70;1.08;;;;;;;2.25;69.31;99690.59;6216392;23;20074;-64
2022/04/14 02:08:03;;;;;;;2.28;1.33;;;;;;;2.29;69.74;99699.09;6216407;23;20032;-64
2022/04/14 02:10:30;;;;;;;2.90;1.27;;;;;;;2.27;69.53;99704.03;6216422;23;20341;-63
2022/04/14 02:12:58;;;;;;;3.03;1.02;;;;;;;2.22;69.18;99704.84;6216378;23;20021;-63
2022/04/14 02:15:25;;;;;;;2.78;1.50;;;;;;;2.24;69.61;99710.06;6216598;23;20025;-70
2022/04/14 02:17:52;;;;;;;2.53;1.52;;;;;;;2.23;69.40;99702.94;6216274;23;20099;-69
2022/04/14 02:20:19;;;;;;;2.53;1.45;;;;;;;2.22;69.33;99715.84;6216866;23;20075;-64
2022/04/14 02:22:46;;;;;;;1.85;1.10;;;;;;;2.17;69.57;99704.03;6216254;23;20024;-63
2022/04/14 02:25:13;;;;;;;2.45;1.02;;;;;;;2.18;69.60;99709.25;6214349;23;20032;-63
2022/04/14 02:27:40;;;;;;;6.55;1.48;;;;;;;2.18;69.45;99708.41;6216358;23;20067;-63
2022/04/14 02:30:08;;;;;;;1.52;0.93;;;;;;;2.15;69.62;99711.72;6216409;23;20028;-63
2022/04/14 02:32:35;;;;;;;2.00;1.30;;;;;;;2.15;69.71;99711.72;6215845;23;20100;-64
2022/04/14 02:35:04;;;;;;;1.58;1.15;;;;;;;2.16;69.88;99716.13;6216485;23;20103;-64
2022/04/14 02:37:31;;;;;;;2.45;1.27;;;;;;;2.15;69.78;99719.94;6216078;23;20052;-64
2022/04/14 02:39:58;;;;;;;2.25;1.20;;;;;;;2.15;69.73;99726.28;6215736;23;20107;-64
2022/04/14 02:42:25;;;;;;;3.47;1.20;;;;;;;2.10;69.58;99731.75;6215479;23;20108;-64
2022/04/14 02:44:52;;;;;;;5.90;1.55;;;;;;;2.09;69.83;99727.38;6215801;23;20028;-63
2022/04/14 02:47:18;;;;;;;4.03;1.52;;;;;;;2.07;69.78;99726.00;6216318;23;20020;-63
2022/04/14 02:49:45;;;;;;;5.53;1.92;;;;;;;2.09;69.97;99723.78;6216208;23;20052;-70
2022/04/14 02:52:12;;;;;;;3.80;1.70;;;;;;;2.12;69.80;99734.22;6215726;23;20059;-71
2022/04/14 02:54:39;;;;;;;2.70;1.50;;;;;;;2.13;69.89;99736.69;6216156;23;20078;-71
2022/04/14 02:57:07;;;;;;;7.43;1.55;;;;;;;2.10;69.88;99739.97;6216007;23;20035;-63
2022/04/14 02:59:35;;;;;;;2.70;1.30;;;;;;;2.04;70.04;99738.31;6215727;23;20031;-64
2022/04/14 03:02:02;;;;;;;4.25;1.85;;;;;;;2.11;69.52;99746.28;6215927;23;20032;-64
2022/04/14 03:04:30;;;;;;;1.52;1.00;;;;;;;2.13;69.83;99746.84;6215714;23;20059;-64
2022/04/14 03:06:57;;;;;;;2.38;1.30;;;;;;;2.16;70.10;99754.53;6215866;23;20528;-65
2022/04/14 03:09:25;;;;;;;2.03;1.40;;;;;;;2.18;69.77;99752.31;6216060;23;20032;-64
2022/04/14 03:11:52;;;;;;;5.28;1.30;;;;;;;2.19;70.09;99759.47;6216016;23;20449;-64
2022/04/14 03:14:19;;;;;;;2.92;1.27;;;;;;;2.20;69.92;99756.47;6213887;23;20079;-64
2022/04/14 03:16:46;;;;;;;4.07;1.50;;;;;;;2.21;69.73;99752.63;6215863;23;20027;-64
2022/04/14 03:19:14;;;;;;;1.90;1.33;;;;;;;2.26;69.66;99760.03;6214799;23;20033;-64
2022/04/14 03:21:41;;;;;;;2.45;1.23;;;;;;;2.28;69.62;99755.09;6215978;23;20119;-64
2022/04/14 03:24:07;;;;;;;3.65;1.45;;;;;;;2.31;69.28;99762.78;6216191;23;20459;-63
2022/04/14 03:26:34;;;;;;;2.20;1.13;;;;;;;2.27;69.64;99759.75;6215676;23;20103;-64
2022/04/14 03:29:01;;;;;;;2.65;1.55;;;;;;;2.26;69.65;99760.03;6215216;23;20060;-63
2022/04/14 03:31:28;;;;;;;3.08;1.30;;;;;;;2.21;69.97;99762.75;6215895;23;20103;-64
2022/04/14 03:33:59;;;;;;;2.25;1.10;;;;;;;2.30;69.38;99766.59;6215360;23;20025;-64
2022/04/14 03:36:26;;;;;;;3.15;1.20;;;;;;;2.33;69.74;99766.06;6215708;23;20471;-63
2022/04/14 03:38:53;;;;;;;1.65;1.02;;;;;;;2.46;69.39;99754.56;6215738;23;20480;-63
2022/04/14 03:41:19;;;;;;;2.47;1.33;;;;;;;2.58;69.02;99757.84;6215602;23;20016;-64
2022/04/14 03:43:46;;;;;;;2.13;1.30;;;;;;;2.74;68.68;99759.47;6215435;23;20095;-64
2022/04/14 03:46:19;;;;;;;4.28;1.42;;;;;;;2.95;68.36;99774.81;6215555;23;20079;-64
2022/04/14 03:48:47;;;;;;;2.60;0.95;;;;;;;3.08;68.05;99757.78;6215295;23;20028;-67
2022/04/14 03:51:14;;;;;;;2.10;1.17;;;;;;;3.18;67.94;99769.56;6215483;23;20352;-63
2022/04/14 03:53:42;;;;;;;1.95;1.10;;;;;;;3.34;67.51;99767.56;6215142;23;20102;-65
2022/04/14 03:56:10;;;;;;;1.85;1.13;;;;;;;3.40;67.43;99760.94;6215927;23;20473;-64
2022/04/14 03:58:37;;;;;;;1.88;1.17;;;;;;;3.51;67.11;99759.81;6215378;23;20025;-63
2022/04/14 04:01:04;;;;;;;5.30;1.38;;;;;;;3.63;66.88;99768.56;6215417;23;20155;-64
2022/04/14 04:03:31;;;;;;;3.17;1.20;;;;;;;3.74;66.51;99761.91;6213763;23;20047;-63
2022/04/14 04:05:58;;;;;;;1.85;1.08;;;;;;;3.79;66.20;99770.94;6215304;23;20107;-64
2022/04/14 04:08:25;;;;;;;1.60;0.88;;;;;;;3.88;66.08;99765.69;6215098;23;20056;-65
2022/04/14 04:10:52;;;;;;;2.53;1.40;;;;;;;3.94;65.74;99764.56;6215099;23;20024;-69
2022/04/14 04:13:19;;;;;;;7.20;1.10;;;;;;;3.91;65.13;99765.13;6215253;23;20506;-65
2022/04/14 04:15:46;;;;;;;6.35;1.35;;;;;;;3.95;64.73;99768.94;6215204;23;20078;-63
2022/04/14 04:18:13;;;;;;;4.05;1.23;;;;;;;3.94;65.19;99770.06;6214987;23;20027;-65
2022/04/14 04:20:40;;;;;;;3.13;1.40;;;;;;;4.09;65.08;99769.97;6214950;23;20420;-63
2022/04/14 04:23:07;;;;;;;2.45;1.25;;;;;;;4.22;64.56;99771.25;6215241;23;20420;-64
2022/04/14 04:25:34;;;;;;;2.97;1.63;;;;;;;4.30;64.61;99765.97;6215348;23;20056;-64
2022/04/14 04:28:01;;;;;;;2.95;1.20;;;;;;;4.45;64.20;99774.13;6215078;23;20100;-69
2022/04/14 04:30:28;;;;;;;2.60;1.10;;;;;;;4.47;63.84;99758.13;6213867;23;20109;-70
2022/04/14 04:32:55;;;;;;;2.47;0.93;;;;;;;4.54;63.79;99758.63;6215273;23;20074;-64
2022/04/14 04:35:22;;;;;;;2.35;1.20;;;;;;;4.64;62.45;99755.78;6215356;23;20032;-70
2022/04/14 04:37:49;;;;;;;2.83;1.20;;;;;;;4.62;62.48;99757.97;6216737;23;20518;-78
2022/04/14 04:40:18;;;;;;;7.50;1.20;;;;;;;4.69;62.55;99755.75;6215392;23;20028;-73
2022/04/14 04:42:45;;;;;;;3.20;1.10;;;;;;;4.82;62.69;99755.06;6215040;23;20027;-72
2022/04/14 04:45:12;;;;;;;8.85;1.25;;;;;;;4.90;62.16;99759.94;6216295;23;20052;-71
2022/04/14 04:47:39;;;;;;;3.60;1.30;;;;;;;4.96;60.90;99764.31;6213704;23;20031;-76
2022/04/14 04:50:07;;;;;;;2.30;1.23;;;;;;;4.95;60.81;99768.16;6215648;23;20024;-71
2022/04/14 04:52:34;;;;;;;2.45;1.27;;;;;;;5.08;60.67;99764.72;6215082;23;20028;-72
2022/04/14 04:55:02;;;;;;;2.45;1.30;;;;;;;5.26;60.81;99763.97;6215410;23;20016;-72
2022/04/14 04:57:29;;;;;;;3.28;1.58;;;;;;;5.36;60.10;99769.38;6215344;23;20051;-78
2022/04/14 04:59:56;;;;;;;2.30;1.65;;;;;;;5.49;60.21;99763.16;6215349;23;20107;-72
2022/04/14 05:02:23;;;;;;;4.90;1.42;;;;;;;5.59;59.50;99751.16;6214950;23;20028;-71
2022/04/14 05:04:50;;;;;;;2.92;1.42;;;;;;;5.72;59.41;99762.31;6214863;23;20031;-75
2022/04/14 05:07:16;;;;;;;2.42;1.23;;;;;;;5.87;58.89;99766.03;6215583;23;20027;-71
2022/04/14 05:09:43;;;;;;;2.00;1.10;;;;;;;5.93;58.60;99756.56;6214608;23;20123;-71
2022/04/14 05:12:10;;;;;;;5.80;1.10;;;;;;;6.00;58.94;99751.47;6214961;23;20107;-71
2022/04/14 05:14:37;;;;;;;3.90;1.30;;;;;;;6.01;58.90;99761.44;6214700;23;20429;-71
2022/04/14 05:17:05;;;;;;;3.90;1.50;;;;;;;6.09;57.94;99760.72;6214958;23;20017;-71
2022/04/14 05:19:32;;;;;;;4.30;1.38;;;;;;;6.25;58.10;99762.19;6215124;23;20025;-71
2022/04/14 05:22:01;;;;;;;4.18;1.50;;;;;;;6.37;57.48;99765.31;6214636;23;20074;-75
2022/04/14 05:24:32;;;;;;;3.95;1.50;;;;;;;6.61;57.08;99760.50;6214749;23;20031;-71
2022/04/14 05:26:59;;;;;;;5.03;1.73;;;;;;;6.79;57.11;99765.16;6215285;23;20472;-77
2022/04/14 05:29:26;;;;;;;1.85;1.00;;;;;;;7.12;56.26;99761.25;6212974;23;20055;-70
2022/04/14 05:31:53;;;;;;;2.58;0.98;;;;;;;7.45;55.74;99769.19;6214999;23;20030;-70
2022/04/14 05:34:20;;;;;;;2.88;1.20;;;;;;;8.11;53.83;99767.81;6214553;23;20360;-71
2022/04/14 05:36:47;;;;;;;2.90;1.20;;;;;;;9.16;50.93;99768.84;6214430;23;20024;-70
2022/04/14 05:39:14;;;;;;;1.17;0.77;;;;;;;10.62;47.08;99748.66;6215155;23;20496;-75
2022/04/14 05:41:43;;;;;;;2.50;1.20;;;;;;;12.58;43.09;99749.78;6213635;23;20356;-75
2022/04/14 05:44:10;;;;;;;3.00;1.13;;;;;;;15.07;38.93;99747.03;6215149;23;20552;-70
2022/04/14 05:46:38;;;;;;;4.38;1.13;;;;;;;16.07;35.96;99738.91;6215166;23;20043;-66
2022/04/14 05:49:05;;;;;;;8.68;1.20;;;;;;;17.16;34.20;99752.59;6214303;23;20025;-65
2022/04/14 05:51:32;;;;;;;3.58;1.40;;;;;;;17.11;34.01;99752.09;6215095;23;20445;-66
2022/04/14 05:53:59;;;;;;;4.00;0.90;;;;;;;17.31;33.67;99750.88;6214183;23;20399;-66
2022/04/14 05:56:26;;;;;;;5.63;1.17;;;;;;;18.18;32.39;99751.69;6213201;23;20051;-65
2022/04/14 05:58:54;;;;;;;9.02;1.42;;;;;;;18.05;32.26;99750.25;6214625;23;20364;-77
2022/04/14 06:01:21;;;;;;;2.83;1.02;;;;;;;16.73;33.00;99757.72;6214789;23;20024;-70
2022/04/14 06:03:48;;;;;;;4.60;1.88;;;;;;;16.50;33.51;99760.41;6214796;23;20029;-71
2022/04/14 06:06:15;;;;;;;2.35;1.25;;;;;;;15.99;34.09;99765.16;6214327;23;20039;-71
2022/04/14 06:08:43;;;;;;;6.82;1.25;;;;;;;16.91;32.51;99758.91;6215457;23;20405;-71
2022/04/14 06:11:10;;;;;;;2.50;1.00;;;;;;;17.82;30.84;99760.72;6216646;23;20028;-71
2022/04/14 06:13:37;;;;;;;3.83;1.35;;;;;;;20.20;27.51;99757.44;6216463;23;20119;-76
2022/04/14 06:16:04;;;;;;;2.15;1.08;;;;;;;21.93;24.63;99748.56;6216561;23;20028;-71
2022/04/14 06:18:31;;;;;;;3.55;2.20;;;;;;;20.40;25.27;99755.16;6216319;23;20330;-77
2022/04/14 06:20:58;;;;;;;3.67;1.25;;;;;;;19.26;27.68;99752.41;6216916;23;20024;-71
2022/04/14 06:23:25;;;;;;;6.35;1.30;;;;;;;18.45;28.61;99761.81;6216305;23;20056;-76
2022/04/14 06:25:52;;;;;;;8.52;2.30;;;;;;;16.94;30.74;99769.41;6216029;23;20107;-71
2022/04/14 06:28:19;;;;;;;3.10;1.27;;;;;;;16.17;31.64;99758.00;6215688;23;20040;-70
2022/04/14 06:30:47;;;;;;;2.95;1.20;;;;;;;16.16;31.22;99776.03;6216624;23;20055;-70
2022/04/14 06:33:15;;;;;;;4.50;1.30;;;;;;;18.52;28.40;99764.72;6215891;23;20028;-70
2022/04/14 06:35:43;;;;;;;3.85;1.13;;;;;;;21.55;24.39;99766.25;6216680;23;20028;-71
2022/04/14 06:38:10;;;;;;;3.10;1.20;;;;;;;23.15;22.84;99758.91;6214420;23;20412;-77
2022/04/14 06:40:40;;;;;;;4.32;1.23;;;;;;;23.17;22.53;99761.34;6214834;23;20032;-75
2022/04/14 06:43:07;;;;;;;5.95;1.30;;;;;;;24.87;20.71;99762.59;6215838;23;20029;-70
2022/04/14 06:45:34;;;;;;;3.00;1.15;;;;;;;26.56;18.77;99756.09;6215695;23;20047;-70
2022/04/14 06:48:02;;;;;;;4.60;1.10;;;;;;;26.06;19.13;99754.53;6215738;23;20036;-71
2022/04/14 06:50:28;;;;;;;5.45;1.10;;;;;;;24.27;21.04;99757.47;6216270;23;20143;-71
2022/04/14 06:52:55;;;;;;;5.07;1.23;;;;;;;22.33;22.67;99756.66;6215943;23;20021;-75
2022/04/14 06:55:22;;;;;;;5.65;1.10;;;;;;;19.62;24.95;99760.09;6216001;23;20127;-76
2022/04/14 06:57:50;;;;;;;5.45;1.20;;;;;;;17.66;27.16;99757.22;6215843;23;20111;-76
2022/04/14 07:00:18;;;;;;;2.35;1.27;;;;;;;17.50;26.89;99767.78;6216893;23;20020;-76
2022/04/14 07:02:50;;;;;;;2.58;1.00;;;;;;;17.47;27.09;99758.06;6215577;23;20115;-71
2022/04/14 07:05:18;;;;;;;3.95;1.10;;;;;;;18.51;26.02;99759.47;6215732;23;20464;-71
2022/04/14 07:07:45;;;;;;;10.95;1.48;;;;;;;18.18;26.24;99760.13;6215400;23;20021;-76
2022/04/14 07:10:13;;;;;;;3.80;1.73;;;;;;;17.85;26.36;99762.75;6216027;23;20051;-72
2022/04/14 07:12:41;;;;;;;2.20;1.10;;;;;;;18.32;26.10;99753.91;6215806;23;20103;-72
2022/04/14 07:15:10;;;;;;;5.35;1.10;;;;;;;18.44;25.79;99751.69;6215639;23;20024;-75
2022/04/14 07:17:37;;;;;;;4.20;0.88;;;;;;;19.52;24.99;99751.53;6215658;23;20025;-75
2022/04/14 07:20:07;;;;;;;5.30;1.02;;;;;;;21.51;22.76;99756.94;6215278;23;20083;-70
2022/04/14 07:22:47;;;;;;;4.18;1.30;;;;;;;23.32;20.45;99748.75;6215908;23;20028;-75
2022/04/14 07:25:21;;;;;;;10.18;1.20;;;;;;;24.34;19.68;99740.31;6216102;23;20098;-76
2022/04/14 07:27:48;;;;;;;1.88;0.90;;;;;;;25.57;18.67;99738.13;6215074;23;20108;-71
2022/04/14 07:30:16;;;;;;;3.58;1.60;;;;;;;24.57;19.25;99743.38;6215772;23;20058;-75
2022/04/14 07:32:44;;;;;;;24.55;9.82;;;;;;;23.49;19.99;99733.66;6215396;23;20111;-75
2022/04/14 07:35:15;;;;;;;7.18;1.60;;;;;;;24.00;19.77;99736.56;6215358;23;20029;-71
2022/04/14 07:37:44;;;;;;;5.30;1.33;;;;;;;24.73;19.08;99734.28;6215682;23;20024;-75
2022/04/14 07:40:11;;;;;;;3.65;1.35;;;;;;;26.33;17.74;99730.44;6215301;23;20047;-70
2022/04/14 07:42:42;;;;;;;4.28;1.30;;;;;;;28.19;16.39;99729.38;6215472;23;20024;-75
2022/04/14 07:45:11;;;;;;;5.85;1.17;;;;;;;29.71;14.96;99718.19;6215608;23;20464;-70
2022/04/14 07:47:43;;;;;;;8.13;1.60;;;;;;;30.86;13.88;99721.28;6215402;23;20021;-71
2022/04/14 07:50:12;;;;;;;5.00;1.80;;;;;;;31.73;13.93;99722.06;6215815;23;20083;-70
2022/04/14 07:52:48;;;;;;;6.22;1.25;;;;;;;32.91;12.19;99712.56;6215406;23;20021;-70
2022/04/14 07:55:29;;;;;;;6.47;3.58;;;;;;;32.98;12.03;99715.13;6215732;23;20028;-75
2022/04/14 07:57:58;;;;;;;18.65;1.55;;;;;;;33.37;12.48;99714.19;6215088;23;20413;-70
2022/04/14 08:00:26;;;;;;;3.20;1.42;;;;;;;33.13;12.75;99718.94;6214836;23;20032;-71
2022/04/14 08:02:58;;;;;;;3.97;1.52;;;;;;;33.71;11.61;99718.72;6215090;23;20103;-74
2022/04/14 08:05:29;;;;;;;2.75;1.30;;;;;;;35.15;10.91;99717.16;6215747;23;20052;-71
2022/04/14 08:07:56;;;;;;;3.67;1.40;;;;;;;36.23;10.28;99718.84;6215125;23;20025;-75
2022/04/14 08:10:23;;;;;;;5.47;1.30;;;;;;;36.85;9.88;99723.50;6215392;23;20024;-72
2022/04/14 08:12:50;;;;;;;8.77;1.40;;;;;;;38.02;8.72;99715.56;6215032;23;20025;-72
2022/04/14 08:15:17;;;;;;;5.65;1.70;;;;;;;38.21;8.27;99719.69;6214935;23;20032;-75
2022/04/14 08:17:44;;;;;;;4.47;1.30;;;;;;;38.66;8.80;99712.09;6215209;23;20024;-71
2022/04/14 08:20:14;;;;;;;11.95;1.20;;;;;;;39.18;8.05;99713.38;6215605;23;20032;-71
2022/04/14 08:22:52;;;;;;;2.55;1.20;;;;;;;39.48;8.31;99709.53;6215697;23;20021;-72
2022/04/14 08:25:24;;;;;;;8.95;1.55;;;;;;;40.32;7.61;99704.56;6215232;23;20107;-71
2022/04/14 08:27:53;;;;;;;3.17;1.27;;;;;;;39.70;7.41;99703.72;6214683;23;20048;-71
2022/04/14 08:30:22;;;;;;;8.32;1.50;;;;;;;40.31;7.36;99709.59;6214899;23;20028;-71
2022/04/14 08:32:50;;;;;;;122.85;10.25;;;;;;;41.20;7.04;99707.22;6214873;23;20047;-71
2022/04/14 08:35:19;;;;;;;5.25;1.80;;;;;;;41.58;6.74;99697.44;6215301;23;20107;-76
2022/04/14 08:37:47;;;;;;;1.85;1.27;;;;;;;39.71;6.93;99687.03;6215961;23;20028;-71
2022/04/14 08:40:21;;;;;;;2.28;1.15;;;;;;;39.17;7.18;99689.31;6215682;23;20111;-72
2022/04/14 08:42:53;;;;;;;4.07;1.02;;;;;;;39.73;6.64;99698.97;6214646;23;20111;-71
2022/04/14 08:45:23;;;;;;;2.90;1.17;;;;;;;40.39;6.39;99698.97;6214827;23;20020;-71
2022/04/14 08:47:51;;;;;;;7.22;1.23;;;;;;;41.49;6.18;99689.00;6215137;23;20094;-71
2022/04/14 08:50:18;;;;;;;2.60;1.08;;;;;;;41.69;5.86;99682.75;6215127;23;20028;-71
2022/04/14 08:52:45;;;;;;;2.85;1.30;;;;;;;41.82;5.57;99685.81;6214794;23;20523;-71
2022/04/14 08:55:14;;;;;;;2.95;1.10;;;;;;;41.95;5.21;99685.22;6215403;23;20107;-72
2022/04/14 08:57:42;;;;;;;7.72;1.50;;;;;;;42.47;5.23;99686.59;6215126;23;20024;-71
2022/04/14 09:00:16;;;;;;;1.98;1.23;;;;;;;42.38;5.35;99681.09;6214597;23;20419;-71
2022/04/14 09:02:46;;;;;;;7.00;1.48;;;;;;;42.98;5.31;99682.53;6215175;23;20056;-70
2022/04/14 09:05:14;;;;;;;5.38;1.45;;;;;;;41.73;5.30;99668.63;6215106;23;20028;-71
2022/04/14 09:07:42;;;;;;;7.25;3.38;;;;;;;41.27;5.98;99659.94;6214872;23;20074;-72
2022/04/14 09:10:09;;;;;;;8.23;1.50;;;;;;;41.73;5.84;99662.78;6213064;23;20025;-70
2022/04/14 09:12:37;;;;;;;4.60;1.83;;;;;;;41.78;5.47;99661.16;6214812;23;20032;-71
2022/04/14 09:15:06;;;;;;;3.20;1.30;;;;;;;41.86;5.52;99662.97;6214942;23;20024;-71
2022/04/14 09:17:33;;;;;;;6.38;1.40;;;;;;;40.85;5.84;99663.31;6214437;23;20061;-75
2022/04/14 09:20:00;;;;;;;8.77;1.55;;;;;;;41.44;5.59;99661.38;6214681;23;20048;-71
2022/04/14 09:22:28;;;;;;;5.47;1.30;;;;;;;39.99;5.85;99659.50;6214567;23;20099;-72
2022/04/14 09:24:57;;;;;;;3.17;1.10;;;;;;;39.83;6.33;99659.53;6215131;23;20029;-71
2022/04/14 09:27:37;;;;;;;3.45;1.30;;;;;;;40.88;5.90;99662.25;6214804;23;20024;-72
2022/04/14 09:30:07;;;;;;;3.15;1.10;;;;;;;41.04;6.06;99670.09;6214640;23;20029;-71
2022/04/14 09:32:38;;;;;;;18.60;9.80;;;;;;;42.11;5.65;99657.94;6215191;23;20067;-72
2022/04/14 09:35:15;;;;;;;2.00;1.10;;;;;;;42.45;5.33;99660.03;6214031;23;20033;-71
2022/04/14 09:37:42;;;;;;;2.65;1.00;;;;;;;41.02;5.42;99658.97;6213147;23;20388;-71
2022/04/14 09:40:10;;;;;;;4.75;1.02;;;;;;;36.72;7.53;99662.94;6215173;23;20055;-70
2022/04/14 09:42:43;;;;;;;2.72;0.90;;;;;;;31.76;9.91;99650.00;6216098;23;20071;-71
2022/04/14 09:45:18;;;;;;;3.22;0.90;;;;;;;28.09;12.14;99646.69;6217123;23;20111;-72
2022/04/14 09:48:02;;;;;;;3.28;0.98;;;;;;;25.02;14.07;99655.88;6214918;23;20095;-70
2022/04/14 09:50:35;;;;;;;2.00;1.02;;;;;;;23.22;15.44;99655.91;6216648;23;20111;-72
2022/04/14 09:53:15;;;;;;;2.72;1.13;;;;;;;21.44;16.74;99655.03;6214106;23;20112;-71
2022/04/14 09:55:51;;;;;;;9.70;0.98;;;;;;;20.17;18.03;99650.88;6215592;23;20436;-71
2022/04/14 09:58:20;;;;;;;3.15;1.20;;;;;;;19.35;18.78;99642.94;6216199;23;20559;-72
2022/04/14 10:00:50;;;;;;;1.73;0.85;;;;;;;18.43;19.93;99645.03;6214737;23;20024;-73
2022/04/14 10:03:19;;;;;;;3.97;0.80;;;;;;;17.68;20.67;99653.56;6216431;23;20025;-72
2022/04/14 10:05:48;;;;;;;1.50;0.88;;;;;;;17.18;20.94;99653.84;6216330;23;20424;-72
2022/04/14 10:08:16;;;;;;;1.98;1.10;;;;;;;16.72;21.74;99658.56;6216182;23;20112;-71
2022/04/14 10:10:45;;;;;;;6.97;0.77;;;;;;;16.27;22.34;99650.78;6216792;23;20384;-72
2022/04/14 10:13:17;;;;;;;3.00;0.80;;;;;;;15.91;22.60;99648.34;6215978;23;20120;-70
2022/04/14 10:15:46;;;;;;;7.03;1.17;;;;;;;15.65;22.77;99644.47;6216908;23;20021;-71
2022/04/14 10:18:15;;;;;;;2.47;1.00;;;;;;;15.50;23.29;99648.94;6216028;23;20016;-73
2022/04/14 10:20:44;;;;;;;6.03;0.93;;;;;;;15.42;23.63;99647.13;6216753;23;20083;-70
2022/04/14 10:23:13;;;;;;;2.22;0.88;;;;;;;14.97;24.35;99646.72;6214474;23;20432;-72
2022/04/14 10:25:42;;;;;;;1.90;0.90;;;;;;;14.68;25.07;99649.88;6216370;23;20027;-72
2022/04/14 10:28:14;;;;;;;10.23;1.13;;;;;;;14.42;25.24;99653.16;6215685;23;20029;-70
2022/04/14 10:30:57;;;;;;;3.35;0.85;;;;;;;14.37;25.30;99655.38;6216322;23;20297;-72
2022/04/14 10:33:25;;;;;;;3.97;0.90;;;;;;;14.10;25.50;99647.75;6215869;23;20020;-71
2022/04/14 10:35:52;;;;;;;1.40;0.93;;;;;;;13.87;26.09;99643.81;6216340;23;20154;-71
2022/04/14 10:38:37;;;;;;;8.00;1.00;;;;;;;13.85;25.75;99646.13;6215706;23;20028;-72
2022/04/14 10:41:14;;;;;;;1.83;0.85;;;;;;;13.76;25.88;99640.69;6216227;23;20522;-72
2022/04/14 10:43:43;;;;;;;5.43;1.13;;;;;;;13.48;26.26;99639.78;6215930;23;20063;-72
2022/04/14 10:46:17;;;;;;;1.40;0.60;;;;;;;13.45;26.39;99648.03;6216705;23;20329;-72
2022/04/14 10:48:46;;;;;;;2.22;0.80;;;;;;;13.53;26.17;99641.53;6214239;23;20021;-65
2022/04/14 10:51:29;;;;;;;8.35;3.13;;;;;;;13.41;26.18;99639.53;6211752;23;20024;-67
2022/04/14 10:54:08;;;;;;;1.85;0.88;;;;;;;13.43;26.36;99641.97;6215134;23;20024;-66
2022/04/14 10:56:41;;;;;;;1.83;0.95;;;;;;;13.46;26.87;99630.94;6215842;23;20106;-67
2022/04/14 10:59:12;;;;;;;6.13;1.13;;;;;;;13.48;26.77;99633.38;6216215;23;20039;-66
2022/04/14 11:01:45;;;;;;;10.55;2.33;;;;;;;13.46;27.14;99646.88;6216006;23;20025;-66
2022/04/14 11:04:52;;;;;;;10.20;0.88;;;;;;;13.22;27.31;99632.88;6216028;23;20532;-66
2022/04/14 11:07:23;;;;;;;3.72;1.10;;;;;;;13.15;27.12;99624.28;6214160;23;20027;-66
2022/04/14 11:09:55;;;;;;;5.85;1.08;;;;;;;13.15;27.34;99618.69;6216270;23;20028;-67
2022/04/14 11:12:50;;;;;;;2.13;0.90;;;;;;;13.15;27.41;99624.28;6215433;23;20029;-65
2022/04/14 11:15:31;;;;;;;1.35;0.80;;;;;;;13.15;27.34;99618.69;6211057;23;20029;-66
2022/04/14 11:18:04;;;;;;;3.42;0.90;;;;;;;12.93;27.54;99613.53;6215677;23;20022;-65
2022/04/14 11:20:34;;;;;;;5.88;1.52;;;;;;;12.80;28.07;99613.47;6215959;23;20468;-65
2022/04/14 11:23:06;;;;;;;1.35;0.70;;;;;;;12.84;27.71;99608.00;6213767;23;20027;-72
2022/04/14 11:25:48;;;;;;;4.90;0.77;;;;;;;12.87;27.90;99605.34;6215863;23;20071;-72
2022/04/14 11:28:24;;;;;;;2.47;0.90;;;;;;;12.75;28.17;99604.50;6215333;23;20075;-72
2022/04/14 11:31:00;;;;;;;2.78;0.80;;;;;;;12.66;28.89;99603.78;6215413;23;20074;-71
2022/04/14 11:33:30;;;;;;;3.95;1.05;;;;;;;12.53;28.52;99602.94;6215344;23;20365;-73
2022/04/14 11:36:09;;;;;;;3.70;1.00;;;;;;;12.59;28.61;99611.91;6215779;23;20333;-73
2022/04/14 11:39:02;;;;;;;8.45;1.40;;;;;;;12.61;28.58;99606.78;6215322;23;20025;-72
2022/04/14 11:41:58;;;;;;;2.08;0.98;;;;;;;12.56;28.43;99607.03;6215418;23;20024;-73
2022/04/14 11:44:31;;;;;;;2.15;1.10;;;;;;;12.37;28.74;99593.59;6215649;23;20035;-72
2022/04/14 11:47:07;;;;;;;2.67;1.08;;;;;;;12.20;28.98;99604.09;6216599;23;20020;-72
2022/04/14 11:49:35;;;;;;;10.45;1.10;;;;;;;12.26;28.75;99602.72;6215417;23;20516;-72